Terminal Aerodrome Forecast
Issued by NWS Portland, ME

Home | Current Version | Previous Version | Text Only | Print | Product List | Glossary On
Versions: 1 2 3 4 5 6 7 8 9 10 11 12 13 14 15 16 17 18 19 20 21 22 23 24 25 26 27 28 29
000
FTUS41 KGYX 191127
TAFPWM
TAF
KPWM 191127Z 1912/2012 06005KT 1SM -DZ BR OVC002
      TEMPO 1912/1914 3SM BR OVC006
     FM191400 06006KT 5SM BR OVC007
     FM191800 07007KT 5SM -SHRA BR BKN008 OVC012
     FM200000 04012KT 2SM -RA BR OVC004=

USA.gov is the U.S. government's official web portal to all federal, state and local government web resources and services.